sensor_id;sensor_type;location;lat;lon;timestamp;pressure;altitude;pressure_sealevel;temperature;humidity
57827;BME280;43656;57.746;11.780;2023-02-01T00:02:05;99173.97;;;7.31;87.74
57827;BME280;43656;57.746;11.780;2023-02-01T00:04:31;99185.59;;;7.18;89.97
57827;BME280;43656;57.746;11.780;2023-02-01T00:06:56;99192.13;;;7.29;90.01
57827;BME280;43656;57.746;11.780;2023-02-01T00:09:21;99195.00;;;7.27;90.13
57827;BME280;43656;57.746;11.780;2023-02-01T00:11:47;99196.75;;;7.15;90.41
57827;BME280;43656;57.746;11.780;2023-02-01T00:14:13;99202.63;;;7.24;89.48
57827;BME280;43656;57.746;11.780;2023-02-01T00:16:38;99182.81;;;7.06;90.25
57827;BME280;43656;57.746;11.780;2023-02-01T00:19:14;99204.06;;;7.26;89.80
57827;BME280;43656;57.746;11.780;2023-02-01T00:21:39;99199.47;;;7.09;89.98
57827;BME280;43656;57.746;11.780;2023-02-01T00:24:06;99192.03;;;7.11;89.85
57827;BME280;43656;57.746;11.780;2023-02-01T00:26:33;99204.09;;;7.20;89.44
57827;BME280;43656;57.746;11.780;2023-02-01T00:29:00;99213.19;;;7.19;89.17
57827;BME280;43656;57.746;11.780;2023-02-01T00:31:26;99194.13;;;7.09;89.36
57827;BME280;43656;57.746;11.780;2023-02-01T00:33:51;99176.84;;;7.04;89.22
57827;BME280;43656;57.746;11.780;2023-02-01T00:36:17;99193.84;;;7.17;89.98
57827;BME280;43656;57.746;11.780;2023-02-01T00:38:42;99186.03;;;7.15;89.62
57827;BME280;43656;57.746;11.780;2023-02-01T00:41:14;99184.19;;;7.16;88.89
57827;BME280;43656;57.746;11.780;2023-02-01T00:43:40;99195.81;;;7.28;87.66
57827;BME280;43656;57.746;11.780;2023-02-01T00:46:06;99195.25;;;7.19;88.22
57827;BME280;43656;57.746;11.780;2023-02-01T00:48:32;99195.03;;;7.21;88.91
57827;BME280;43656;57.746;11.780;2023-02-01T00:51:03;99190.97;;;7.12;88.33
57827;BME280;43656;57.746;11.780;2023-02-01T00:53:29;99190.03;;;7.31;87.49
57827;BME280;43656;57.746;11.780;2023-02-01T00:55:55;99191.41;;;7.40;87.64
57827;BME280;43656;57.746;11.780;2023-02-01T00:58:21;99200.78;;;7.24;88.20
57827;BME280;43656;57.746;11.780;2023-02-01T01:00:49;99202.53;;;7.37;86.82
57827;BME280;43656;57.746;11.780;2023-02-01T01:03:14;99193.22;;;7.46;86.19
57827;BME280;43656;57.746;11.780;2023-02-01T01:05:49;99158.44;;;7.15;86.85
57827;BME280;43656;57.746;11.780;2023-02-01T01:08:15;99196.97;;;7.39;87.37
57827;BME280;43656;57.746;11.780;2023-02-01T01:10:41;99193.63;;;7.43;87.59
57827;BME280;43656;57.746;11.780;2023-02-01T01:13:07;99200.47;;;7.39;87.74
57827;BME280;43656;57.746;11.780;2023-02-01T01:15:39;99197.38;;;7.42;88.35
57827;BME280;43656;57.746;11.780;2023-02-01T01:18:05;99200.19;;;7.47;87.82
57827;BME280;43656;57.746;11.780;2023-02-01T01:20:33;99189.06;;;7.50;87.47
57827;BME280;43656;57.746;11.780;2023-02-01T01:22:59;99193.81;;;7.48;87.52
57827;BME280;43656;57.746;11.780;2023-02-01T01:25:25;99200.38;;;7.52;87.24
57827;BME280;43656;57.746;11.780;2023-02-01T01:27:50;99194.78;;;7.54;87.24
57827;BME280;43656;57.746;11.780;2023-02-01T01:30:16;99189.91;;;7.44;87.31
57827;BME280;43656;57.746;11.780;2023-02-01T01:32:41;99196.66;;;7.53;87.16
57827;BME280;43656;57.746;11.780;2023-02-01T01:35:07;99187.72;;;7.35;87.52
57827;BME280;43656;57.746;11.780;2023-02-01T01:37:32;99192.44;;;7.39;87.31
57827;BME280;43656;57.746;11.780;2023-02-01T01:39:58;99205.44;;;7.61;85.99
57827;BME280;43656;57.746;11.780;2023-02-01T01:42:24;99201.84;;;7.48;86.08
57827;BME280;43656;57.746;11.780;2023-02-01T01:47:41;99177.28;;;7.51;85.40
57827;BME280;43656;57.746;11.780;2023-02-01T01:50:13;99206.03;;;7.63;85.44
57827;BME280;43656;57.746;11.780;2023-02-01T01:52:44;99209.59;;;7.57;86.04
57827;BME280;43656;57.746;11.780;2023-02-01T01:55:13;99242.47;;;7.64;86.15
57827;BME280;43656;57.746;11.780;2023-02-01T01:57:42;99237.38;;;7.81;85.82
57827;BME280;43656;57.746;11.780;2023-02-01T02:00:13;99249.53;;;7.83;85.63
57827;BME280;43656;57.746;11.780;2023-02-01T02:02:41;99241.94;;;7.80;86.04
57827;BME280;43656;57.746;11.780;2023-02-01T02:05:08;99251.69;;;7.68;85.95
57827;BME280;43656;57.746;11.780;2023-02-01T02:07:37;99244.16;;;7.83;84.97
57827;BME280;43656;57.746;11.780;2023-02-01T02:10:06;99166.16;;;7.54;83.68
57827;BME280;43656;57.746;11.780;2023-02-01T02:12:32;99232.41;;;7.84;85.14
57827;BME280;43656;57.746;11.780;2023-02-01T02:14:58;99246.09;;;7.76;86.42
57827;BME280;43656;57.746;11.780;2023-02-01T02:20:23;99238.19;;;7.81;86.14
57827;BME280;43656;57.746;11.780;2023-02-01T02:25:55;99223.94;;;7.87;85.95
57827;BME280;43656;57.746;11.780;2023-02-01T02:36:42;99230.78;;;7.83;85.49
57827;BME280;43656;57.746;11.780;2023-02-01T02:42:37;99227.44;;;7.88;82.82
57827;BME280;43656;57.746;11.780;2023-02-01T02:45:42;99230.28;;;7.93;82.95
57827;BME280;43656;57.746;11.780;2023-02-01T02:48:38;99213.91;;;7.83;82.86
57827;BME280;43656;57.746;11.780;2023-02-01T02:54:32;99211.78;;;7.91;85.04
57827;BME280;43656;57.746;11.780;2023-02-01T02:57:33;99224.03;;;7.99;85.99
57827;BME280;43656;57.746;11.780;2023-02-01T03:00:22;99192.09;;;7.79;85.62
57827;BME280;43656;57.746;11.780;2023-02-01T03:03:08;99228.28;;;7.88;85.19
57827;BME280;43656;57.746;11.780;2023-02-01T03:05:53;99224.25;;;7.97;84.52
57827;BME280;43656;57.746;11.780;2023-02-01T03:08:27;99226.06;;;8.04;84.92
57827;BME280;43656;57.746;11.780;2023-02-01T03:11:08;99216.66;;;7.94;85.33
57827;BME280;43656;57.746;11.780;2023-02-01T03:13:40;99219.28;;;8.01;85.51
57827;BME280;43656;57.746;11.780;2023-02-01T03:16:33;99214.03;;;7.88;85.16
57827;BME280;43656;57.746;11.780;2023-02-01T03:21:31;99220.13;;;8.02;84.52
57827;BME280;43656;57.746;11.780;2023-02-01T03:24:00;99204.44;;;7.80;85.27
57827;BME280;43656;57.746;11.780;2023-02-01T03:26:28;99216.31;;;8.09;84.04
57827;BME280;43656;57.746;11.780;2023-02-01T03:29:00;99219.50;;;7.99;85.10
57827;BME280;43656;57.746;11.780;2023-02-01T03:31:28;99214.31;;;8.05;85.65
57827;BME280;43656;57.746;11.780;2023-02-01T03:33:54;99218.75;;;7.92;86.23
57827;BME280;43656;57.746;11.780;2023-02-01T03:36:59;99225.31;;;7.96;85.66
57827;BME280;43656;57.746;11.780;2023-02-01T03:39:38;99198.81;;;8.07;85.05
57827;BME280;43656;57.746;11.780;2023-02-01T03:42:10;99195.91;;;7.90;84.61
57827;BME280;43656;57.746;11.780;2023-02-01T03:44:53;99228.47;;;8.12;84.46
57827;BME280;43656;57.746;11.780;2023-02-01T03:47:23;99228.84;;;7.90;84.45
57827;BME280;43656;57.746;11.780;2023-02-01T03:49:53;99238.31;;;7.93;83.14
57827;BME280;43656;57.746;11.780;2023-02-01T03:52:43;99243.13;;;7.84;82.66
57827;BME280;43656;57.746;11.780;2023-02-01T03:55:11;99234.81;;;7.92;82.11
57827;BME280;43656;57.746;11.780;2023-02-01T03:57:53;99207.44;;;7.90;81.72
57827;BME280;43656;57.746;11.780;2023-02-01T04:00:23;99232.78;;;8.13;81.46
57827;BME280;43656;57.746;11.780;2023-02-01T04:02:49;99225.03;;;8.05;82.19
57827;BME280;43656;57.746;11.780;2023-02-01T04:05:15;99204.38;;;7.87;81.85
57827;BME280;43656;57.746;11.780;2023-02-01T04:07:40;99218.03;;;8.22;80.64
57827;BME280;43656;57.746;11.780;2023-02-01T04:10:07;99219.88;;;8.03;80.70
57827;BME280;43656;57.746;11.780;2023-02-01T04:12:32;99211.09;;;8.14;80.04
57827;BME280;43656;57.746;11.780;2023-02-01T04:14:58;99208.22;;;8.16;80.74
57827;BME280;43656;57.746;11.780;2023-02-01T04:17:23;99218.94;;;8.16;81.11
57827;BME280;43656;57.746;11.780;2023-02-01T04:19:49;99180.34;;;7.80;82.27
57827;BME280;43656;57.746;11.780;2023-02-01T04:22:14;99204.19;;;8.07;81.84
57827;BME280;43656;57.746;11.780;2023-02-01T04:24:40;99194.41;;;7.94;81.99
57827;BME280;43656;57.746;11.780;2023-02-01T04:27:05;99191.53;;;7.95;81.90
57827;BME280;43656;57.746;11.780;2023-02-01T04:29:30;99215.72;;;8.07;80.35
57827;BME280;43656;57.746;11.780;2023-02-01T04:31:56;99211.78;;;8.10;79.35
57827;BME280;43656;57.746;11.780;2023-02-01T04:34:21;99209.53;;;8.07;79.46
57827;BME280;43656;57.746;11.780;2023-02-01T04:36:48;99199.88;;;8.06;80.14
57827;BME280;43656;57.746;11.780;2023-02-01T04:39:13;99203.81;;;8.03;80.44
57827;BME280;43656;57.746;11.780;2023-02-01T04:41:39;99203.53;;;8.11;80.04
57827;BME280;43656;57.746;11.780;2023-02-01T04:44:04;99197.34;;;8.11;80.44
57827;BME280;43656;57.746;11.780;2023-02-01T04:46:29;99193.50;;;8.25;79.71
57827;BME280;43656;57.746;11.780;2023-02-01T04:48:55;99191.25;;;8.22;81.19
57827;BME280;43656;57.746;11.780;2023-02-01T04:51:20;99179.03;;;8.08;82.33
57827;BME280;43656;57.746;11.780;2023-02-01T04:53:46;99194.88;;;8.28;81.59
57827;BME280;43656;57.746;11.780;2023-02-01T04:56:11;99190.78;;;8.07;82.58
57827;BME280;43656;57.746;11.780;2023-02-01T04:58:36;99185.13;;;7.96;82.21
57827;BME280;43656;57.746;11.780;2023-02-01T05:01:03;99180.59;;;7.97;81.09
57827;BME280;43656;57.746;11.780;2023-02-01T05:03:30;99180.31;;;8.05;80.69
57827;BME280;43656;57.746;11.780;2023-02-01T05:05:56;99183.31;;;7.90;81.44
57827;BME280;43656;57.746;11.780;2023-02-01T05:08:21;99192.41;;;8.08;82.04
57827;BME280;43656;57.746;11.780;2023-02-01T05:10:47;99197.91;;;7.94;83.48
57827;BME280;43656;57.746;11.780;2023-02-01T05:13:13;99196.88;;;7.95;82.89
57827;BME280;43656;57.746;11.780;2023-02-01T05:15:57;99197.53;;;7.91;83.49
57827;BME280;43656;57.746;11.780;2023-02-01T05:18:22;99195.63;;;7.98;82.67
57827;BME280;43656;57.746;11.780;2023-02-01T05:20:48;99200.22;;;7.91;83.33
57827;BME280;43656;57.746;11.780;2023-02-01T05:23:13;99201.44;;;7.95;82.79
57827;BME280;43656;57.746;11.780;2023-02-01T05:25:38;99199.09;;;7.80;83.63
57827;BME280;43656;57.746;11.780;2023-02-01T05:28:04;99200.16;;;7.97;83.37
57827;BME280;43656;57.746;11.780;2023-02-01T05:30:29;99192.78;;;7.93;83.96
57827;BME280;43656;57.746;11.780;2023-02-01T05:32:55;99194.91;;;7.84;84.50
57827;BME280;43656;57.746;11.780;2023-02-01T05:35:20;99175.56;;;7.64;83.32
57827;BME280;43656;57.746;11.780;2023-02-01T05:37:46;99188.31;;;7.87;81.56
57827;BME280;43656;57.746;11.780;2023-02-01T05:40:11;99178.59;;;7.67;81.54
57827;BME280;43656;57.746;11.780;2023-02-01T05:42:37;99191.06;;;7.80;80.76
57827;BME280;43656;57.746;11.780;2023-02-01T05:45:02;99188.31;;;7.87;80.21
57827;BME280;43656;57.746;11.780;2023-02-01T05:47:30;99189.63;;;7.77;80.96
57827;BME280;43656;57.746;11.780;2023-02-01T05:49:55;99185.50;;;7.82;80.71
57827;BME280;43656;57.746;11.780;2023-02-01T05:52:21;99154.31;;;7.69;79.90
57827;BME280;43656;57.746;11.780;2023-02-01T05:54:47;99172.91;;;7.82;80.52
57827;BME280;43656;57.746;11.780;2023-02-01T05:57:13;99175.28;;;7.72;81.14
57827;BME280;43656;57.746;11.780;2023-02-01T05:59:39;99166.94;;;7.80;80.60
57827;BME280;43656;57.746;11.780;2023-02-01T06:02:10;99177.78;;;7.92;80.88
57827;BME280;43656;57.746;11.780;2023-02-01T06:04:36;99180.22;;;7.93;81.26
57827;BME280;43656;57.746;11.780;2023-02-01T06:07:02;99174.22;;;7.98;80.82
57827;BME280;43656;57.746;11.780;2023-02-01T06:09:28;99172.78;;;7.95;81.72
57827;BME280;43656;57.746;11.780;2023-02-01T06:11:53;99175.97;;;8.04;82.36
57827;BME280;43656;57.746;11.780;2023-02-01T06:14:19;99160.41;;;7.94;83.05
57827;BME280;43656;57.746;11.780;2023-02-01T06:16:44;99168.38;;;8.01;82.99
57827;BME280;43656;57.746;11.780;2023-02-01T06:19:12;99176.34;;;7.89;84.02
57827;BME280;43656;57.746;11.780;2023-02-01T06:21:37;99145.41;;;7.93;83.74
57827;BME280;43656;57.746;11.780;2023-02-01T06:24:03;99154.53;;;7.86;84.26
57827;BME280;43656;57.746;11.780;2023-02-01T06:26:29;99169.31;;;7.70;85.31
57827;BME280;43656;57.746;11.780;2023-02-01T06:28:54;99164.78;;;7.70;83.64
57827;BME280;43656;57.746;11.780;2023-02-01T06:31:20;99167.84;;;7.74;82.16
57827;BME280;43656;57.746;11.780;2023-02-01T06:33:46;99177.53;;;7.75;80.89
57827;BME280;43656;57.746;11.780;2023-02-01T06:36:12;99137.75;;;7.53;80.53
57827;BME280;43656;57.746;11.780;2023-02-01T06:38:38;99180.44;;;7.92;80.22
57827;BME280;43656;57.746;11.780;2023-02-01T06:41:04;99184.34;;;7.71;81.27
57827;BME280;43656;57.746;11.780;2023-02-01T06:43:30;99186.00;;;7.72;80.88
57827;BME280;43656;57.746;11.780;2023-02-01T06:46:03;99178.91;;;7.59;80.29
57827;BME280;43656;57.746;11.780;2023-02-01T06:48:33;99196.78;;;7.84;79.14
57827;BME280;43656;57.746;11.780;2023-02-01T06:50:59;99183.75;;;7.69;79.35
57827;BME280;43656;57.746;11.780;2023-02-01T06:53:24;99177.78;;;7.67;78.40
57827;BME280;43656;57.746;11.780;2023-02-01T06:56:02;99193.91;;;7.60;79.06
57827;BME280;43656;57.746;11.780;2023-02-01T06:58:32;99197.53;;;7.72;79.10
57827;BME280;43656;57.746;11.780;2023-02-01T07:01:06;99176.47;;;7.76;79.23
57827;BME280;43656;57.746;11.780;2023-02-01T07:03:32;99199.53;;;7.77;81.03
57827;BME280;43656;57.746;11.780;2023-02-01T07:05:57;99196.28;;;7.93;81.74
57827;BME280;43656;57.746;11.780;2023-02-01T07:08:30;99202.88;;;7.72;83.63
57827;BME280;43656;57.746;11.780;2023-02-01T07:10:56;99175.66;;;7.50;84.75
57827;BME280;43656;57.746;11.780;2023-02-01T07:13:22;99196.22;;;7.57;84.32
57827;BME280;43656;57.746;11.780;2023-02-01T07:15:47;99203.41;;;7.56;84.16
57827;BME280;43656;57.746;11.780;2023-02-01T07:18:16;99184.03;;;7.61;82.69
57827;BME280;43656;57.746;11.780;2023-02-01T07:20:42;99194.41;;;7.50;82.65
57827;BME280;43656;57.746;11.780;2023-02-01T07:23:10;99193.84;;;7.67;81.68
57827;BME280;43656;57.746;11.780;2023-02-01T07:25:36;99178.59;;;7.67;81.35
57827;BME280;43656;57.746;11.780;2023-02-01T07:28:02;99195.28;;;7.69;81.42
57827;BME280;43656;57.746;11.780;2023-02-01T07:30:27;99186.13;;;7.59;81.76
57827;BME280;43656;57.746;11.780;2023-02-01T07:32:53;99167.94;;;7.42;81.94
57827;BME280;43656;57.746;11.780;2023-02-01T07:35:18;99194.72;;;7.61;81.77
57827;BME280;43656;57.746;11.780;2023-02-01T07:37:44;99198.16;;;7.68;81.03
57827;BME280;43656;57.746;11.780;2023-02-01T07:40:09;99192.72;;;7.56;81.10
57827;BME280;43656;57.746;11.780;2023-02-01T07:42:35;99203.63;;;7.54;80.71
57827;BME280;43656;57.746;11.780;2023-02-01T07:45:01;99195.53;;;7.61;80.50
57827;BME280;43656;57.746;11.780;2023-02-01T07:47:27;99207.72;;;7.57;81.00
57827;BME280;43656;57.746;11.780;2023-02-01T07:49:53;99198.13;;;7.49;80.66
57827;BME280;43656;57.746;11.780;2023-02-01T07:52:18;99188.78;;;7.59;79.79
57827;BME280;43656;57.746;11.780;2023-02-01T07:54:44;99190.91;;;7.50;80.08
57827;BME280;43656;57.746;11.780;2023-02-01T07:57:09;99184.63;;;7.63;79.43
57827;BME280;43656;57.746;11.780;2023-02-01T07:59:37;99184.06;;;7.79;78.10
57827;BME280;43656;57.746;11.780;2023-02-01T08:02:22;99180.63;;;7.72;78.13
57827;BME280;43656;57.746;11.780;2023-02-01T08:04:48;99157.19;;;7.67;77.40
57827;BME280;43656;57.746;11.780;2023-02-01T08:07:14;99170.06;;;7.59;78.31
57827;BME280;43656;57.746;11.780;2023-02-01T08:09:39;99180.03;;;7.70;77.06
57827;BME280;43656;57.746;11.780;2023-02-01T08:12:05;99181.59;;;7.77;77.34
57827;BME280;43656;57.746;11.780;2023-02-01T08:14:30;99183.94;;;7.92;76.77
57827;BME280;43656;57.746;11.780;2023-02-01T08:16:56;99169.50;;;7.75;77.03
57827;BME280;43656;57.746;11.780;2023-02-01T08:19:21;99183.25;;;7.97;77.01
57827;BME280;43656;57.746;11.780;2023-02-01T08:21:46;99181.94;;;8.06;76.38
57827;BME280;43656;57.746;11.780;2023-02-01T08:24:13;99153.13;;;7.83;76.63
57827;BME280;43656;57.746;11.780;2023-02-01T08:26:39;99184.84;;;8.05;76.55
57827;BME280;43656;57.746;11.780;2023-02-01T08:29:07;99180.81;;;7.95;77.08
57827;BME280;43656;57.746;11.780;2023-02-01T08:31:33;99183.72;;;8.12;76.45
57827;BME280;43656;57.746;11.780;2023-02-01T08:34:01;99163.19;;;8.06;76.54
57827;BME280;43656;57.746;11.780;2023-02-01T08:36:30;99180.28;;;8.23;77.17
57827;BME280;43656;57.746;11.780;2023-02-01T08:38:56;99155.25;;;8.18;77.87
57827;BME280;43656;57.746;11.780;2023-02-01T08:41:27;99178.66;;;8.22;78.29
57827;BME280;43656;57.746;11.780;2023-02-01T08:43:54;99171.06;;;8.19;78.91
57827;BME280;43656;57.746;11.780;2023-02-01T08:46:20;99174.19;;;8.16;80.09
57827;BME280;43656;57.746;11.780;2023-02-01T08:48:47;99177.69;;;8.17;80.92
57827;BME280;43656;57.746;11.780;2023-02-01T08:51:14;99177.63;;;8.23;81.18
57827;BME280;43656;57.746;11.780;2023-02-01T08:53:40;99181.09;;;8.24;81.58
57827;BME280;43656;57.746;11.780;2023-02-01T08:56:07;99182.41;;;8.21;81.78
57827;BME280;43656;57.746;11.780;2023-02-01T08:58:33;99183.28;;;8.15;82.41
57827;BME280;43656;57.746;11.780;2023-02-01T09:01:17;99185.81;;;8.29;81.86
57827;BME280;43656;57.746;11.780;2023-02-01T09:03:43;99185.75;;;8.35;81.75
57827;BME280;43656;57.746;11.780;2023-02-01T09:06:11;99182.31;;;8.28;82.20
57827;BME280;43656;57.746;11.780;2023-02-01T09:08:38;99183.94;;;8.11;83.45
57827;BME280;43656;57.746;11.780;2023-02-01T09:11:11;99189.53;;;8.09;84.65
57827;BME280;43656;57.746;11.780;2023-02-01T09:13:37;99187.53;;;8.23;83.66
57827;BME280;43656;57.746;11.780;2023-02-01T09:16:03;99177.84;;;8.22;83.28
57827;BME280;43656;57.746;11.780;2023-02-01T09:18:28;99188.50;;;8.47;82.40
57827;BME280;43656;57.746;11.780;2023-02-01T09:20:54;99180.53;;;8.40;82.74
57827;BME280;43656;57.746;11.780;2023-02-01T09:23:19;99194.22;;;8.32;84.14
57827;BME280;43656;57.746;11.780;2023-02-01T09:25:47;99173.00;;;8.31;83.95
57827;BME280;43656;57.746;11.780;2023-02-01T09:28:15;99199.72;;;8.37;83.84
57827;BME280;43656;57.746;11.780;2023-02-01T09:30:41;99190.44;;;8.40;83.23
57827;BME280;43656;57.746;11.780;2023-02-01T09:33:06;99194.34;;;8.37;83.94
57827;BME280;43656;57.746;11.780;2023-02-01T09:35:32;99172.78;;;8.32;83.45
57827;BME280;43656;57.746;11.780;2023-02-01T09:37:57;99183.06;;;8.35;83.75
57827;BME280;43656;57.746;11.780;2023-02-01T09:40:23;99189.09;;;8.49;83.88
57827;BME280;43656;57.746;11.780;2023-02-01T09:48:19;99189.19;;;8.42;84.71
57827;BME280;43656;57.746;11.780;2023-02-01T09:50:54;99190.81;;;8.62;84.06
57827;BME280;43656;57.746;11.780;2023-02-01T09:56:05;99176.06;;;8.53;83.62
57827;BME280;43656;57.746;11.780;2023-02-01T09:58:36;99190.66;;;8.57;83.06
57827;BME280;43656;57.746;11.780;2023-02-01T10:01:08;99195.13;;;8.63;82.51
57827;BME280;43656;57.746;11.780;2023-02-01T10:03:36;99189.78;;;8.44;84.24
57827;BME280;43656;57.746;11.780;2023-02-01T10:09:04;99186.09;;;8.57;84.10
57827;BME280;43656;57.746;11.780;2023-02-01T10:12:04;99173.31;;;8.41;85.06
57827;BME280;43656;57.746;11.780;2023-02-01T10:25:39;99200.13;;;8.59;84.97
57827;BME280;43656;57.746;11.780;2023-02-01T10:28:13;99188.69;;;8.64;84.71
57827;BME280;43656;57.746;11.780;2023-02-01T10:30:45;99199.13;;;8.54;85.47
57827;BME280;43656;57.746;11.780;2023-02-01T10:36:00;99199.41;;;8.64;85.24
57827;BME280;43656;57.746;11.780;2023-02-01T10:38:29;99182.25;;;8.35;86.71
57827;BME280;43656;57.746;11.780;2023-02-01T10:40:58;99204.66;;;8.59;86.27
57827;BME280;43656;57.746;11.780;2023-02-01T10:43:26;99210.19;;;8.45;87.03
57827;BME280;43656;57.746;11.780;2023-02-01T10:45:51;99198.59;;;8.63;86.63
57827;BME280;43656;57.746;11.780;2023-02-01T10:48:17;99214.31;;;8.78;85.67
57827;BME280;43656;57.746;11.780;2023-02-01T10:53:54;99207.53;;;8.76;86.76
57827;BME280;43656;57.746;11.780;2023-02-01T10:56:23;99212.22;;;8.80;87.30
57827;BME280;43656;57.746;11.780;2023-02-01T10:58:49;99211.63;;;8.78;87.09
57827;BME280;43656;57.746;11.780;2023-02-01T11:01:21;99209.50;;;8.99;86.21
57827;BME280;43656;57.746;11.780;2023-02-01T11:03:54;99192.31;;;8.58;88.73
57827;BME280;43656;57.746;11.780;2023-02-01T11:06:30;99211.13;;;9.00;87.12
57827;BME280;43656;57.746;11.780;2023-02-01T11:17:01;99205.19;;;8.98;87.88
57827;BME280;43656;57.746;11.780;2023-02-01T11:19:34;99191.44;;;9.06;87.75
57827;BME280;43656;57.746;11.780;2023-02-01T11:21:59;99198.94;;;9.15;87.86
57827;BME280;43656;57.746;11.780;2023-02-01T11:24:33;99190.78;;;9.22;87.17
57827;BME280;43656;57.746;11.780;2023-02-01T11:27:02;99202.34;;;9.23;87.03
57827;BME280;43656;57.746;11.780;2023-02-01T11:29:36;99191.88;;;9.03;88.43
57827;BME280;43656;57.746;11.780;2023-02-01T11:32:03;99214.88;;;8.80;88.78
57827;BME280;43656;57.746;11.780;2023-02-01T11:37:27;99204.25;;;8.74;87.48
57827;BME280;43656;57.746;11.780;2023-02-01T11:40:03;99215.50;;;8.82;86.92
57827;BME280;43656;57.746;11.780;2023-02-01T11:42:29;99210.41;;;8.92;86.23
57827;BME280;43656;57.746;11.780;2023-02-01T11:47:42;99216.50;;;9.00;85.53
57827;BME280;43656;57.746;11.780;2023-02-01T11:50:40;99214.69;;;9.12;84.82
57827;BME280;43656;57.746;11.780;2023-02-01T12:07:28;99201.88;;;9.14;85.29
57827;BME280;43656;57.746;11.780;2023-02-01T12:40:45;99155.81;;;10.63;80.96
57827;BME280;43656;57.746;11.780;2023-02-01T12:45:59;99150.53;;;10.28;81.59
57827;BME280;43656;57.746;11.780;2023-02-01T12:51:10;99166.31;;;10.01;82.90
57827;BME280;43656;57.746;11.780;2023-02-01T12:56:11;99139.34;;;9.72;83.10
57827;BME280;43656;57.746;11.780;2023-02-01T12:58:46;99178.72;;;9.78;83.46
57827;BME280;43656;57.746;11.780;2023-02-01T13:01:35;99174.84;;;9.86;83.93
57827;BME280;43656;57.746;11.780;2023-02-01T13:06:53;99161.31;;;9.81;84.15
57827;BME280;43656;57.746;11.780;2023-02-01T13:11:52;99150.22;;;9.77;83.75
57827;BME280;43656;57.746;11.780;2023-02-01T13:14:39;99166.91;;;9.91;83.35
57827;BME280;43656;57.746;11.780;2023-02-01T13:17:15;99166.44;;;9.94;83.57
57827;BME280;43656;57.746;11.780;2023-02-01T13:19:53;99158.84;;;9.79;83.92
57827;BME280;43656;57.746;11.780;2023-02-01T13:22:26;99160.72;;;9.91;83.68
57827;BME280;43656;57.746;11.780;2023-02-01T13:24:57;99168.06;;;9.95;83.34
57827;BME280;43656;57.746;11.780;2023-02-01T13:27:26;99165.03;;;9.92;83.61
57827;BME280;43656;57.746;11.780;2023-02-01T13:30:23;99148.78;;;9.86;83.64
57827;BME280;43656;57.746;11.780;2023-02-01T13:36:02;99157.69;;;9.87;83.06
57827;BME280;43656;57.746;11.780;2023-02-01T13:38:48;99153.81;;;9.83;84.16
57827;BME280;43656;57.746;11.780;2023-02-01T13:41:28;99155.94;;;9.69;84.47
57827;BME280;43656;57.746;11.780;2023-02-01T13:44:14;99150.00;;;9.67;85.00
57827;BME280;43656;57.746;11.780;2023-02-01T13:46:43;99152.22;;;9.70;83.99
57827;BME280;43656;57.746;11.780;2023-02-01T13:49:22;99147.28;;;9.55;84.69
57827;BME280;43656;57.746;11.780;2023-02-01T13:51:51;99134.13;;;9.54;84.55
57827;BME280;43656;57.746;11.780;2023-02-01T13:54:33;99140.19;;;9.61;84.57
57827;BME280;43656;57.746;11.780;2023-02-01T13:57:01;99138.53;;;9.60;84.69
57827;BME280;43656;57.746;11.780;2023-02-01T14:02:45;99131.66;;;9.64;83.57
57827;BME280;43656;57.746;11.780;2023-02-01T14:13:38;99132.22;;;9.66;83.76
57827;BME280;43656;57.746;11.780;2023-02-01T14:18:56;99130.72;;;9.70;83.52
57827;BME280;43656;57.746;11.780;2023-02-01T14:21:33;99137.03;;;9.64;83.97
57827;BME280;43656;57.746;11.780;2023-02-01T14:26:51;99140.19;;;9.61;84.28
57827;BME280;43656;57.746;11.780;2023-02-01T14:29:25;99146.72;;;9.41;85.22
57827;BME280;43656;57.746;11.780;2023-02-01T15:01:25;99158.88;;;8.42;87.68
57827;BME280;43656;57.746;11.780;2023-02-01T15:06:30;99164.16;;;8.49;87.79
57827;BME280;43656;57.746;11.780;2023-02-01T15:14:34;99168.53;;;8.61;87.54
57827;BME280;43656;57.746;11.780;2023-02-01T15:17:00;99170.84;;;8.58;88.63
57827;BME280;43656;57.746;11.780;2023-02-01T15:19:28;99167.13;;;8.59;88.16
57827;BME280;43656;57.746;11.780;2023-02-01T15:21:55;99174.34;;;8.58;88.87
57827;BME280;43656;57.746;11.780;2023-02-01T15:26:47;99184.03;;;8.59;88.81
57827;BME280;43656;57.746;11.780;2023-02-01T15:29:13;99176.34;;;8.63;88.72
57827;BME280;43656;57.746;11.780;2023-02-01T15:31:40;99177.03;;;8.58;89.22
57827;BME280;43656;57.746;11.780;2023-02-01T15:34:06;99177.84;;;8.59;89.18
57827;BME280;43656;57.746;11.780;2023-02-01T15:36:32;99173.66;;;8.63;89.49
57827;BME280;43656;57.746;11.780;2023-02-01T15:39:25;99175.28;;;8.64;89.47
57827;BME280;43656;57.746;11.780;2023-02-01T15:42:15;99181.09;;;8.61;89.90
57827;BME280;43656;57.746;11.780;2023-02-01T15:44:44;99175.75;;;8.61;89.58
57827;BME280;43656;57.746;11.780;2023-02-01T15:47:17;99190.94;;;8.67;89.65
57827;BME280;43656;57.746;11.780;2023-02-01T15:49:45;99169.56;;;8.60;89.84
57827;BME280;43656;57.746;11.780;2023-02-01T15:52:20;99174.19;;;8.72;89.13
57827;BME280;43656;57.746;11.780;2023-02-01T15:54:50;99184.81;;;8.78;89.38
57827;BME280;43656;57.746;11.780;2023-02-01T15:57:25;99177.88;;;8.70;89.78
57827;BME280;43656;57.746;11.780;2023-02-01T15:59:57;99186.63;;;8.66;89.62
57827;BME280;43656;57.746;11.780;2023-02-01T16:04:51;99185.66;;;8.60;89.91
57827;BME280;43656;57.746;11.780;2023-02-01T16:07:27;99180.94;;;8.37;90.68
57827;BME280;43656;57.746;11.780;2023-02-01T16:09:55;99186.75;;;8.34;90.31
57827;BME280;43656;57.746;11.780;2023-02-01T16:12:44;99188.34;;;8.23;90.83
57827;BME280;43656;57.746;11.780;2023-02-01T16:15:11;99188.19;;;8.37;90.27
57827;BME280;43656;57.746;11.780;2023-02-01T16:17:36;99180.09;;;8.43;89.41
57827;BME280;43656;57.746;11.780;2023-02-01T16:20:02;99186.06;;;8.45;89.42
57827;BME280;43656;57.746;11.780;2023-02-01T16:22:27;99172.53;;;8.34;89.46